Whippleville, New York
Current Conditions -  °F | °C
As of 2:51 AM on Monday 24 Nov 2014 (Local Time) from KSLK Reporting Station
Clear Clear  
Wind Chill: 44°   Ceiling: Unl
Heat Index: 47°   Visibility: 10mi
Dew Point: 39°   Wind: 7mph
Humidity: 74%   Direction: 200°SSW
Pressure: 29.72"   Gusts: NA
Location:  44.81°N, 74.26°W
Report Text: KSLK 240751Z AUTO 20006KT 10SM CLR 08/04 A2972 RMK AO2 SLP073 T00830039
Loading
Personal Weather Stations






























Interactive Weather Map New forecast layout! Learn more

10-Day Weather Forecast

Advertisements
Track Severe Weather on mobile